Time;durP1;ratioP1;P1;durP2;ratioP2;P2;SDS_P1;SDS_P2;PMS_P1;PMS_P2;Temp;Humidity;BMP_temperature;BMP_pressure;BME280_temperature;BME280_humidity;BME280_pressure;Samples;Min_cycle;Max_cycle;Signal;HPM_P1;HPM_P2
2021/10/11 00:00:39;;;;;;;6.8;5;;;;;;;;;;;;;
2021/10/11 00:03:04;;;;;;;7.4;5.1;;;;;;;;;;;;;
2021/10/11 00:05:29;;;;;;;6.6;4.9;;;;;;;;;;;;;
2021/10/11 00:07:54;;;;;;;6.3;4.7;;;;;;;;;;;;;
2021/10/11 00:10:20;;;;;;;5.9;4.2;;;;;;;;;;;;;
2021/10/11 00:12:45;;;;;;;6.2;4.6;;;;;;;;;;;;;
2021/10/11 00:15:10;;;;;;;5.5;4.4;;;;;;;;;;;;;
2021/10/11 00:17:35;;;;;;;5.9;4.2;;;;;;;;;;;;;
2021/10/11 00:20:00;;;;;;;7.1;4.5;;;;;;;;;;;;;
2021/10/11 00:22:25;;;;;;;6.4;4.4;;;;;;;;;;;;;
2021/10/11 00:24:51;;;;;;;5.8;4.2;;;;;;;;;;;;;
2021/10/11 00:27:17;;;;;;;5.1;4.1;;;;;;;;;;;;;
2021/10/11 00:29:41;;;;;;;5.5;3.9;;;;;;;;;;;;;
2021/10/11 00:32:08;;;;;;;5.4;3.9;;;;;;;;;;;;;
2021/10/11 00:34:31;;;;;;;7.1;4.3;;;;;;;;;;;;;
2021/10/11 00:36:57;;;;;;;6.3;4.3;;;;;;;;;;;;;
2021/10/11 00:39:22;;;;;;;4.8;4;;;;;;;;;;;;;
2021/10/11 00:41:48;;;;;;;7.1;5;;;;;;;;;;;;;
2021/10/11 00:44:13;;;;;;;9.1;5.3;;;;;;;;;;;;;
2021/10/11 00:46:38;;;;;;;5.7;4.2;;;;;;;;;;;;;
2021/10/11 00:49:03;;;;;;;7.2;4.7;;;;;;;;;;;;;
2021/10/11 00:51:28;;;;;;;5;4.1;;;;;;;;;;;;;
2021/10/11 00:53:53;;;;;;;5.2;4;;;;;;;;;;;;;
2021/10/11 00:56:18;;;;;;;5.4;3.9;;;;;;;;;;;;;
2021/10/11 00:58:44;;;;;;;5.6;3.8;;;;;;;;;;;;;
2021/10/11 01:01:09;;;;;;;5.5;3.8;;;;;;;;;;;;;
2021/10/11 01:03:34;;;;;;;6.3;4.5;;;;;;;;;;;;;
2021/10/11 01:05:59;;;;;;;6.4;4.2;;;;;;;;;;;;;
2021/10/11 01:08:24;;;;;;;7.2;4.7;;;;;;;;;;;;;
2021/10/11 01:10:49;;;;;;;6.4;4.7;;;;;;;;;;;;;
2021/10/11 01:13:14;;;;;;;7;4.3;;;;;;;;;;;;;
2021/10/11 01:15:40;;;;;;;5.6;4.3;;;;;;;;;;;;;
2021/10/11 01:18:05;;;;;;;6.3;4.1;;;;;;;;;;;;;
2021/10/11 01:20:30;;;;;;;9.4;5.1;;;;;;;;;;;;;
2021/10/11 01:22:55;;;;;;;6.3;4.3;;;;;;;;;;;;;
2021/10/11 01:25:22;;;;;;;6.9;4.6;;;;;;;;;;;;;
2021/10/11 01:27:48;;;;;;;5.9;4.3;;;;;;;;;;;;;
2021/10/11 01:30:14;;;;;;;5;3.2;;;;;;;;;;;;;
2021/10/11 01:32:39;;;;;;;4.4;3.5;;;;;;;;;;;;;
2021/10/11 01:35:05;;;;;;;5.9;3.9;;;;;;;;;;;;;
2021/10/11 01:37:30;;;;;;;5.1;3.1;;;;;;;;;;;;;
2021/10/11 01:39:56;;;;;;;5.3;3.9;;;;;;;;;;;;;
2021/10/11 01:42:21;;;;;;;6.1;4.1;;;;;;;;;;;;;
2021/10/11 01:44:48;;;;;;;5.6;3.9;;;;;;;;;;;;;
2021/10/11 01:47:13;;;;;;;7.1;4.9;;;;;;;;;;;;;
2021/10/11 01:49:38;;;;;;;6.5;4.4;;;;;;;;;;;;;
2021/10/11 01:52:03;;;;;;;6.4;3.8;;;;;;;;;;;;;
2021/10/11 01:54:28;;;;;;;5.2;4.1;;;;;;;;;;;;;
2021/10/11 01:56:53;;;;;;;6.4;3.9;;;;;;;;;;;;;
2021/10/11 01:59:18;;;;;;;5.4;3.6;;;;;;;;;;;;;
2021/10/11 02:01:43;;;;;;;5.3;3.2;;;;;;;;;;;;;
2021/10/11 02:04:09;;;;;;;4.6;3.3;;;;;;;;;;;;;
2021/10/11 02:06:34;;;;;;;5.8;3.7;;;;;;;;;;;;;
2021/10/11 02:08:59;;;;;;;4.2;3.5;;;;;;;;;;;;;
2021/10/11 02:11:24;;;;;;;4.9;3.7;;;;;;;;;;;;;
2021/10/11 02:13:49;;;;;;;4.2;3.2;;;;;;;;;;;;;
2021/10/11 02:16:15;;;;;;;4.2;3.5;;;;;;;;;;;;;
2021/10/11 02:18:40;;;;;;;5.6;3.6;;;;;;;;;;;;;
2021/10/11 02:21:05;;;;;;;5.5;4.1;;;;;;;;;;;;;
2021/10/11 02:23:47;;;;;;;5.5;3.6;;;;;;;;;;;;;
2021/10/11 02:26:12;;;;;;;4.8;3.6;;;;;;;;;;;;;
2021/10/11 02:28:37;;;;;;;4.3;3.4;;;;;;;;;;;;;
2021/10/11 02:31:02;;;;;;;5.3;3.6;;;;;;;;;;;;;
2021/10/11 02:33:27;;;;;;;4.7;3.1;;;;;;;;;;;;;
2021/10/11 02:35:53;;;;;;;4.6;3.2;;;;;;;;;;;;;
2021/10/11 02:38:18;;;;;;;5;3.2;;;;;;;;;;;;;
2021/10/11 02:40:43;;;;;;;4;3.3;;;;;;;;;;;;;
2021/10/11 02:43:08;;;;;;;5.1;3.9;;;;;;;;;;;;;
2021/10/11 02:45:33;;;;;;;5.3;3.3;;;;;;;;;;;;;
2021/10/11 02:47:58;;;;;;;5.2;3;;;;;;;;;;;;;
2021/10/11 02:50:24;;;;;;;5.8;3.5;;;;;;;;;;;;;
2021/10/11 02:52:49;;;;;;;4.2;3.2;;;;;;;;;;;;;
2021/10/11 02:56:01;;;;;;;4.6;3.4;;;;;;;;;;;;;
2021/10/11 02:58:12;;;;;;;3.6;3;;;;;;;;;;;;;
2021/10/11 03:00:37;;;;;;;4.3;3.6;;;;;;;;;;;;;
2021/10/11 03:03:02;;;;;;;7.2;5.3;;;;;;;;;;;;;
2021/10/11 03:05:27;;;;;;;5.3;4.3;;;;;;;;;;;;;
2021/10/11 03:07:52;;;;;;;6.1;4.4;;;;;;;;;;;;;
2021/10/11 03:10:18;;;;;;;9.3;4.2;;;;;;;;;;;;;
2021/10/11 03:12:46;;;;;;;5.8;4.2;;;;;;;;;;;;;
2021/10/11 03:15:11;;;;;;;8.5;4.5;;;;;;;;;;;;;
2021/10/11 03:17:36;;;;;;;5.2;4.2;;;;;;;;;;;;;
2021/10/11 03:20:01;;;;;;;6.1;3.9;;;;;;;;;;;;;
2021/10/11 03:22:26;;;;;;;4.4;3.6;;;;;;;;;;;;;
2021/10/11 03:24:52;;;;;;;5.6;3.4;;;;;;;;;;;;;
2021/10/11 03:27:17;;;;;;;7.6;3.7;;;;;;;;;;;;;
2021/10/11 03:29:43;;;;;;;4.8;3.3;;;;;;;;;;;;;
2021/10/11 03:32:08;;;;;;;4.3;3.3;;;;;;;;;;;;;
2021/10/11 03:34:34;;;;;;;4.7;3.3;;;;;;;;;;;;;
2021/10/11 03:36:59;;;;;;;4.1;3.1;;;;;;;;;;;;;
2021/10/11 03:39:24;;;;;;;5.3;3;;;;;;;;;;;;;
2021/10/11 03:41:49;;;;;;;4.1;3.2;;;;;;;;;;;;;
2021/10/11 03:44:14;;;;;;;4.4;3;;;;;;;;;;;;;
2021/10/11 03:46:40;;;;;;;4.7;3.4;;;;;;;;;;;;;
2021/10/11 03:49:05;;;;;;;5;2.8;;;;;;;;;;;;;
2021/10/11 03:51:30;;;;;;;4.1;2.8;;;;;;;;;;;;;
2021/10/11 03:53:55;;;;;;;3.5;3;;;;;;;;;;;;;
2021/10/11 03:56:21;;;;;;;3.3;3;;;;;;;;;;;;;
2021/10/11 03:58:46;;;;;;;4;3;;;;;;;;;;;;;
2021/10/11 04:02:31;;;;;;;5.6;3.4;;;;;;;1.36;91.70508;945.9191;;;;
2021/10/11 04:04:56;;;;;;;4.7;3.7;;;;;;;1.31;92.39746;945.91;;;;
2021/10/11 04:07:23;;;;;;;7.6;4.9;;;;;;;1.37;92.05273;945.9363;;;;
2021/10/11 04:09:48;;;;;;;4.2;3.4;;;;;;;1.42;91.63867;945.904;;;;
2021/10/11 04:12:19;;;;;;;5.1;3.2;;;;;;;1.37;91.53906;945.8365;;;;
2021/10/11 04:14:38;;;;;;;6.9;3.4;;;;;;;1.34;91.70117;945.8141;;;;
2021/10/11 04:17:03;;;;;;;6.7;3.6;;;;;;;1.25;91.84863;945.7814;;;;
2021/10/11 04:19:28;;;;;;;5.8;3.4;;;;;;;1.18;92.46973;945.7534;;;;
2021/10/11 04:21:53;;;;;;;4;3;;;;;;;1.22;92.71289;945.7608;;;;
2021/10/11 04:24:19;;;;;;;6;3.5;;;;;;;1.34;92.19238;945.6932;;;;
2021/10/11 04:26:44;;;;;;;5.2;3.5;;;;;;;1.33;91.83301;945.7074;;;;
2021/10/11 04:29:10;;;;;;;4.4;3.3;;;;;;;1.35;91.9375;945.6769;;;;
2021/10/11 04:31:53;;;;;;;4.6;3.2;;;;;;;1.44;91.33105;945.7535;;;;
2021/10/11 04:34:20;;;;;;;8.2;3.6;;;;;;;1.33;91.35254;945.7922;;;;
2021/10/11 04:36:44;;;;;;;6.9;3.7;;;;;;;1.31;91.66113;945.7949;;;;
2021/10/11 04:39:11;;;;;;;5.1;3.7;;;;;;;1.24;92.11523;945.8058;;;;
2021/10/11 04:41:36;;;;;;;5.7;4.1;;;;;;;1.17;92.15527;945.8408;;;;
2021/10/11 04:44:03;;;;;;;7.7;6;;;;;;;0.96;93.12402;945.7744;;;;
2021/10/11 04:46:28;;;;;;;6.1;4.1;;;;;;;0.84;93.99121;945.8364;;;;
2021/10/11 04:48:55;;;;;;;7.9;4.6;;;;;;;0.98;93.73242;945.9099;;;;
2021/10/11 04:51:20;;;;;;;8.4;4.5;;;;;;;1.04;92.9209;945.9412;;;;
2021/10/11 04:53:46;;;;;;;10.3;7.1;;;;;;;1.14;92.75098;945.9448;;;;
2021/10/11 04:56:11;;;;;;;12.3;7.2;;;;;;;1.17;92.08789;945.9029;;;;
2021/10/11 04:58:39;;;;;;;12.8;7.5;;;;;;;1.28;91.41016;945.853;;;;
2021/10/11 05:01:04;;;;;;;15.2;8.2;;;;;;;1.3;91.13477;945.9504;;;;
2021/10/11 05:03:30;;;;;;;19.9;9.3;;;;;;;1.29;91.30957;945.9465;;;;
2021/10/11 05:05:56;;;;;;;15.2;8;;;;;;;1.32;91.57422;946.0066;;;;
2021/10/11 05:08:21;;;;;;;12.9;6.9;;;;;;;1.37;91.28418;945.9978;;;;
2021/10/11 05:10:47;;;;;;;12.6;6.4;;;;;;;1.3;91.16602;946.0239;;;;
2021/10/11 05:13:13;;;;;;;11.3;6;;;;;;;0.95;92.56543;946.0053;;;;
2021/10/11 05:15:40;;;;;;;10.5;7.1;;;;;;;1.13;92.69434;946.0345;;;;
2021/10/11 05:18:06;;;;;;;10.6;7.2;;;;;;;1.17;92.34473;946.0447;;;;
2021/10/11 05:20:32;;;;;;;9.8;7.1;;;;;;;1.28;92.11328;946.0444;;;;
2021/10/11 05:22:55;;;;;;;10.3;5.6;;;;;;;1.12;92.62402;946.0362;;;;
2021/10/11 05:25:21;;;;;;;8.5;4.9;;;;;;;1.16;92.82324;946.0005;;;;
2021/10/11 05:27:46;;;;;;;10.5;5.5;;;;;;;1.15;92.54395;945.9968;;;;
2021/10/11 05:30:12;;;;;;;8.5;5.3;;;;;;;1.27;92.19727;945.9955;;;;
2021/10/11 05:32:37;;;;;;;7;4.5;;;;;;;1.19;91.89063;945.9602;;;;
2021/10/11 05:35:03;;;;;;;10.5;4.7;;;;;;;1.1;92.58789;945.9506;;;;
2021/10/11 05:37:28;;;;;;;4.9;4.2;;;;;;;1.14;92.51563;945.9724;;;;
2021/10/11 05:39:54;;;;;;;6.2;3.9;;;;;;;1.05;92.07422;945.9894;;;;
2021/10/11 05:42:19;;;;;;;7.1;4.2;;;;;;;0.88;93.01855;946.0018;;;;
2021/10/11 05:44:44;;;;;;;8.5;5.6;;;;;;;0.85;93.80566;945.9752;;;;
2021/10/11 05:47:10;;;;;;;10.6;5.7;;;;;;;1.05;93.40234;945.8734;;;;
2021/10/11 05:49:34;;;;;;;10;6.7;;;;;;;1.21;92.53418;946.0084;;;;
2021/10/11 05:52:00;;;;;;;9;5.6;;;;;;;1.14;92.33691;946.0499;;;;
2021/10/11 05:54:27;;;;;;;9.2;4.8;;;;;;;1.23;92.42578;946.0218;;;;
2021/10/11 05:56:53;;;;;;;10.6;4.3;;;;;;;1.27;92.33301;945.9952;;;;
2021/10/11 05:59:18;;;;;;;7.1;4.1;;;;;;;1.12;92.32227;946.0591;;;;
2021/10/11 06:01:43;;;;;;;7;4.1;;;;;;;1.2;92.83301;946.0753;;;;
2021/10/11 06:04:08;;;;;;;8.6;5.2;;;;;;;1.41;92.1748;946.0556;;;;
2021/10/11 06:06:33;;;;;;;7.2;4.6;;;;;;;1.6;91.14258;946.0441;;;;
2021/10/11 06:08:59;;;;;;;7.5;4.4;;;;;;;1.48;90.74805;946.0018;;;;
2021/10/11 06:11:24;;;;;;;9.7;4.7;;;;;;;1.49;91.30957;945.9509;;;;
2021/10/11 06:13:49;;;;;;;8.5;4.9;;;;;;;1.55;91.36621;945.9688;;;;
2021/10/11 06:16:15;;;;;;;8.7;6.3;;;;;;;1.84;90.18652;945.9724;;;;
2021/10/11 06:18:40;;;;;;;8;5.9;;;;;;;1.85;89.89746;945.932;;;;
2021/10/11 06:21:05;;;;;;;8.8;6.5;;;;;;;2.16;89.77246;946.0825;;;;
2021/10/11 06:23:30;;;;;;;6.3;4.1;;;;;;;2.46;88.11133;946.0837;;;;
2021/10/11 06:25:57;;;;;;;9;4.1;;;;;;;2.66;87.16602;946.0899;;;;
2021/10/11 06:28:22;;;;;;;7.5;3.6;;;;;;;2.81;86.87305;946.1035;;;;
2021/10/11 06:30:48;;;;;;;5.9;3.9;;;;;;;2.98;85.67383;946.1121;;;;
2021/10/11 06:33:14;;;;;;;6.3;4.1;;;;;;;3.06;85.38672;946.041;;;;
2021/10/11 06:35:39;;;;;;;12.8;4.6;;;;;;;2.99;85.44043;945.971;;;;
2021/10/11 06:38:05;;;;;;;9.1;4.4;;;;;;;3;86.0791;945.8731;;;;
2021/10/11 06:40:30;;;;;;;5.3;3.4;;;;;;;3.18;85.34375;945.8597;;;;
2021/10/11 06:42:56;;;;;;;7.4;3.7;;;;;;;3.2;85.77344;945.8123;;;;
2021/10/11 06:45:23;;;;;;;7.3;4.9;;;;;;;3.44;84.96973;945.8657;;;;
2021/10/11 06:47:49;;;;;;;7.7;5.5;;;;;;;3.32;85.06738;945.8279;;;;
2021/10/11 06:50:15;;;;;;;7.6;5.1;;;;;;;3.56;84.86719;945.8688;;;;
2021/10/11 06:52:40;;;;;;;11.3;5.6;;;;;;;3.45;85.08301;945.7695;;;;
2021/10/11 06:55:05;;;;;;;7.9;3.9;;;;;;;3.75;84.40332;945.8691;;;;
2021/10/11 06:57:30;;;;;;;11.5;4.1;;;;;;;4.03;83.45801;945.8605;;;;
2021/10/11 06:59:55;;;;;;;8.8;4.8;;;;;;;4.18;82.64258;945.9344;;;;
2021/10/11 07:02:21;;;;;;;5.7;4.1;;;;;;;4.42;81.89941;945.9016;;;;
2021/10/11 07:04:46;;;;;;;4.5;3.1;;;;;;;4.65;79.79199;945.803;;;;
2021/10/11 07:07:11;;;;;;;8;3.6;;;;;;;4.82;79.375;945.8731;;;;
2021/10/11 07:09:36;;;;;;;5.2;3.3;;;;;;;4.77;79.36523;945.8239;;;;
2021/10/11 07:12:01;;;;;;;6;3.1;;;;;;;4.8;79.93359;945.7755;;;;
2021/10/11 07:14:26;;;;;;;6.5;3.1;;;;;;;4.96;79.13965;945.7092;;;;
2021/10/11 07:16:51;;;;;;;9.2;4.1;;;;;;;4.83;79.16309;945.7687;;;;
2021/10/11 07:19:17;;;;;;;4.9;2.7;;;;;;;4.88;78.75391;945.7472;;;;
2021/10/11 07:21:43;;;;;;;4.6;2.4;;;;;;;5.19;77.33496;945.7937;;;;
2021/10/11 07:24:11;;;;;;;4.9;2.7;;;;;;;5.46;77.48633;945.7849;;;;
2021/10/11 07:26:34;;;;;;;3.8;2.4;;;;;;;5.6;76.20117;945.7208;;;;
2021/10/11 07:29:00;;;;;;;3.8;2.4;;;;;;;5.64;75.27051;945.6824;;;;
2021/10/11 07:31:25;;;;;;;3.1;2.3;;;;;;;5.52;76.20801;945.6188;;;;
2021/10/11 07:33:50;;;;;;;3.6;2.5;;;;;;;5.51;75.49707;945.6113;;;;
2021/10/11 07:36:15;;;;;;;4.1;3.2;;;;;;;5.74;74.60059;945.6074;;;;
2021/10/11 07:38:41;;;;;;;6.8;4.2;;;;;;;6.18;74.7666;945.5592;;;;
2021/10/11 07:41:07;;;;;;;4.5;2.6;;;;;;;5.92;73.71582;945.4969;;;;
2021/10/11 07:43:32;;;;;;;2.5;2;;;;;;;5.8;73.52637;945.5259;;;;
2021/10/11 07:46:02;;;;;;;2.4;2.2;;;;;;;6.16;73.75781;945.5634;;;;
2021/10/11 07:48:22;;;;;;;4.5;2.6;;;;;;;6.58;72.26953;945.5597;;;;
2021/10/11 07:50:48;;;;;;;4.1;2.5;;;;;;;6.9;71.11133;945.4996;;;;
2021/10/11 07:53:13;;;;;;;3.5;2.3;;;;;;;7.37;68.57129;945.4866;;;;
2021/10/11 07:55:38;;;;;;;3.5;2;;;;;;;8.04;68.0293;945.4425;;;;
2021/10/11 07:58:03;;;;;;;3.7;2;;;;;;;8.31;64.7002;945.4444;;;;
2021/10/11 08:00:28;;;;;;;3.1;1.9;;;;;;;8.34;62.47754;945.4363;;;;
2021/10/11 08:02:55;;;;;;;2.9;1.8;;;;;;;8.47;63.06445;945.3926;;;;
2021/10/11 08:05:20;;;;;;;3.1;2;;;;;;;9.07;61.91309;945.3376;;;;
2021/10/11 08:07:47;;;;;;;2.3;1.7;;;;;;;10.52;56.56152;945.2277;;;;
2021/10/11 08:10:12;;;;;;;1.5;1.2;;;;;;;10.19;55.46777;945.2119;;;;
2021/10/11 08:12:37;;;;;;;4.7;1.8;;;;;;;11.74;53.63965;945.1305;;;;
2021/10/11 08:15:02;;;;;;;2.5;1.8;;;;;;;13.07;48.46484;945.1426;;;;
2021/10/11 08:17:27;;;;;;;2.5;1.2;;;;;;;13.7;48.25781;945.0355;;;;
2021/10/11 08:19:53;;;;;;;1.3;1.2;;;;;;;14.51;46.40039;944.9655;;;;
2021/10/11 08:22:20;;;;;;;1.7;1.5;;;;;;;15.5;42.90332;944.885;;;;
2021/10/11 08:24:45;;;;;;;2.4;1.4;;;;;;;13.96;43.30469;944.9578;;;;
2021/10/11 08:27:16;;;;;;;1.7;1.1;;;;;;;14.32;44.43457;944.9526;;;;
2021/10/11 08:29:35;;;;;;;2;1.3;;;;;;;15.45;42.29785;944.8825;;;;
2021/10/11 08:32:00;;;;;;;3.5;1.6;;;;;;;14.47;43.42383;944.8723;;;;
2021/10/11 08:34:25;;;;;;;1.6;1.5;;;;;;;13.55;44.78125;944.8491;;;;
2021/10/11 08:36:51;;;;;;;2.1;1.4;;;;;;;12.74;48.91016;944.7924;;;;
2021/10/11 08:39:16;;;;;;;2.7;1.7;;;;;;;12.04;48.41895;944.7904;;;;
2021/10/11 08:41:43;;;;;;;1.9;1.7;;;;;;;12.74;48.39355;944.8387;;;;
2021/10/11 08:44:07;;;;;;;2.2;1.4;;;;;;;12.74;48.04883;944.7619;;;;
2021/10/11 08:46:34;;;;;;;2.2;1.4;;;;;;;12.53;47.40527;944.704;;;;
2021/10/11 08:48:59;;;;;;;1.5;1.4;;;;;;;12.07;49.32715;944.7374;;;;
2021/10/11 08:51:25;;;;;;;1.6;1.5;;;;;;;12.64;46.37402;944.7151;;;;
2021/10/11 08:53:50;;;;;;;2;1.6;;;;;;;12.56;47.90234;944.7107;;;;
2021/10/11 08:56:17;;;;;;;2.5;1.6;;;;;;;12.33;48.29102;944.6445;;;;
2021/10/11 08:58:42;;;;;;;2.2;1.4;;;;;;;12.08;48.22852;944.6984;;;;
2021/10/11 09:01:07;;;;;;;1.5;1.4;;;;;;;12.21;48.32227;944.6401;;;;
2021/10/11 09:03:33;;;;;;;1.5;1.3;;;;;;;11.71;49.38965;944.6203;;;;
2021/10/11 09:05:58;;;;;;;2.7;1.4;;;;;;;10.97;50.07031;944.6252;;;;
2021/10/11 09:08:24;;;;;;;1.9;1.5;;;;;;;10.84;49.51855;944.5001;;;;
2021/10/11 09:10:49;;;;;;;2.1;1.3;;;;;;;11.1;49.14746;944.4995;;;;
2021/10/11 09:13:15;;;;;;;1.7;1.3;;;;;;;11.46;49.57715;944.4606;;;;
2021/10/11 09:15:41;;;;;;;3;1.5;;;;;;;11.78;46.27148;944.4342;;;;
2021/10/11 09:18:06;;;;;;;2.3;1.7;;;;;;;11.51;47.85547;944.3968;;;;
2021/10/11 09:20:31;;;;;;;7.5;1.5;;;;;;;12.6;46.39355;944.3845;;;;
2021/10/11 09:22:56;;;;;;;1.6;1.4;;;;;;;13.01;46.03516;944.4182;;;;
2021/10/11 09:25:21;;;;;;;2.3;1.5;;;;;;;13.33;43.79297;944.4269;;;;
2021/10/11 09:27:47;;;;;;;1.4;1.3;;;;;;;13.61;45.08691;944.3566;;;;
2021/10/11 09:30:12;;;;;;;1.4;1.3;;;;;;;12.69;44.22266;944.2762;;;;
2021/10/11 09:32:38;;;;;;;1.8;1.2;;;;;;;12.68;44.43945;944.3322;;;;
2021/10/11 09:35:03;;;;;;;1.3;1.2;;;;;;;12.79;44.24414;944.3549;;;;
2021/10/11 09:37:28;;;;;;;2.2;1.4;;;;;;;12.97;44.7334;944.3578;;;;
2021/10/11 09:39:53;;;;;;;1.3;1.2;;;;;;;12.7;45.19922;944.3196;;;;
2021/10/11 09:42:18;;;;;;;1.2;1.1;;;;;;;12.92;43.85645;944.2847;;;;
2021/10/11 09:44:45;;;;;;;1.8;1.2;;;;;;;12.97;44.76758;944.3147;;;;
2021/10/11 09:47:10;;;;;;;1.3;1.2;;;;;;;12.83;44.39746;944.3348;;;;
2021/10/11 09:49:38;;;;;;;1.6;1.5;;;;;;;12.41;49.34277;944.3188;;;;
2021/10/11 09:52:03;;;;;;;1.5;1.2;;;;;;;12.53;48.98926;944.3006;;;;
2021/10/11 09:54:27;;;;;;;2.6;1.3;;;;;;;12.55;46.70898;944.2552;;;;
2021/10/11 09:56:52;;;;;;;2.7;1.2;;;;;;;12.36;50.79297;944.2559;;;;
2021/10/11 09:59:18;;;;;;;1.4;1.3;;;;;;;12.16;52.37402;944.3107;;;;
2021/10/11 10:01:45;;;;;;;1.9;1.3;;;;;;;12.06;54.28711;944.3876;;;;
2021/10/11 10:04:09;;;;;;;1.2;1.1;;;;;;;12.53;51.2832;944.2607;;;;
2021/10/11 10:06:33;;;;;;;8.4;3.6;;;;;;;12.6;52.72461;944.343;;;;
2021/10/11 10:09:01;;;;;;;1.6;1.5;;;;;;;12.74;51.75684;944.3488;;;;
2021/10/11 10:11:26;;;;;;;3.5;1.6;;;;;;;13.14;51.37891;944.3463;;;;
2021/10/11 10:13:53;;;;;;;4.7;1.6;;;;;;;12.74;51.49121;944.4055;;;;
2021/10/11 10:16:18;;;;;;;2.2;1.4;;;;;;;12.98;51.39355;944.4994;;;;
2021/10/11 10:18:42;;;;;;;1.5;1.3;;;;;;;13.32;51.2041;944.57;;;;
2021/10/11 10:21:08;;;;;;;1.5;1.2;;;;;;;13.27;50.92285;944.6462;;;;
2021/10/11 10:23:32;;;;;;;1.4;1.3;;;;;;;13.08;51.58984;944.5903;;;;
2021/10/11 10:25:57;;;;;;;1.9;1.4;;;;;;;12.66;54.60352;944.5828;;;;
2021/10/11 10:28:24;;;;;;;3;1.4;;;;;;;12.65;55.66895;944.5955;;;;
2021/10/11 10:30:48;;;;;;;2;1.5;;;;;;;12.68;54.50293;944.5056;;;;
2021/10/11 10:33:16;;;;;;;1.4;1.3;;;;;;;12.99;53.08203;944.4995;;;;
2021/10/11 10:35:38;;;;;;;1.7;1.5;;;;;;;13.29;53.18848;944.4025;;;;
2021/10/11 10:38:05;;;;;;;1.4;1.3;;;;;;;13.03;52.92773;944.4562;;;;
2021/10/11 10:40:31;;;;;;;135.9;4.7;;;;;;;13.02;53.39648;944.433;;;;
2021/10/11 10:42:56;;;;;;;2.9;1.8;;;;;;;13.02;52.92676;944.4618;;;;
2021/10/11 10:45:21;;;;;;;1.6;1.5;;;;;;;13.05;54.15723;944.4604;;;;
2021/10/11 10:47:46;;;;;;;1.3;1.2;;;;;;;13.2;54.12012;944.4166;;;;
2021/10/11 10:50:13;;;;;;;2.2;1.5;;;;;;;13.58;52.12109;944.4596;;;;
2021/10/11 10:52:37;;;;;;;2.3;1.6;;;;;;;13.71;51.96387;944.4537;;;;
2021/10/11 10:55:03;;;;;;;1.6;1.5;;;;;;;14.01;51.86133;944.4928;;;;
2021/10/11 10:57:28;;;;;;;2.9;1.7;;;;;;;13.91;50.26074;944.5114;;;;
2021/10/11 10:59:54;;;;;;;1.7;1.6;;;;;;;13.76;51.43945;944.4141;;;;
2021/10/11 11:02:20;;;;;;;2.4;1.6;;;;;;;14.2;51.89551;944.2947;;;;
2021/10/11 11:04:45;;;;;;;1.8;1.6;;;;;;;14.4;49.99609;944.2977;;;;
2021/10/11 11:07:17;;;;;;;1.5;1.4;;;;;;;14.45;49.14844;944.2969;;;;
2021/10/11 11:09:36;;;;;;;1.4;1.3;;;;;;;14.91;48.62402;944.1956;;;;
2021/10/11 11:12:01;;;;;;;1.5;1.4;;;;;;;15.35;47.0332;944.2745;;;;
2021/10/11 11:14:26;;;;;;;1.8;1.5;;;;;;;15.34;46.23633;944.2665;;;;
2021/10/11 11:16:51;;;;;;;2.4;1.6;;;;;;;15.38;45.92773;944.2208;;;;
2021/10/11 11:19:17;;;;;;;2.6;1.4;;;;;;;15.45;46.90527;944.0927;;;;
2021/10/11 11:21:43;;;;;;;1.7;1.6;;;;;;;14.51;50.05371;944.1625;;;;
2021/10/11 11:24:09;;;;;;;1.7;1.3;;;;;;;14.64;50.51758;944.1039;;;;
2021/10/11 11:26:34;;;;;;;1.8;1.5;;;;;;;15.3;48.37793;944.1004;;;;
2021/10/11 11:29:00;;;;;;;2.3;1.6;;;;;;;16.46;45.9834;944.0549;;;;
2021/10/11 11:31:25;;;;;;;1.8;1.3;;;;;;;16.52;44.16113;944.0569;;;;
2021/10/11 11:33:51;;;;;;;1.4;1.3;;;;;;;16.01;46.08594;944.0714;;;;
2021/10/11 11:36:16;;;;;;;1.4;1.3;;;;;;;16.36;45.16406;943.9592;;;;
2021/10/11 11:38:41;;;;;;;2.3;1.5;;;;;;;17.07;43.92676;943.9185;;;;
2021/10/11 11:41:06;;;;;;;1.7;1.2;;;;;;;17.58;42.39941;943.9322;;;;
2021/10/11 11:43:31;;;;;;;1.3;1.1;;;;;;;17.34;43.7334;943.7986;;;;
2021/10/11 11:45:57;;;;;;;2.3;1.3;;;;;;;16.88;43.72266;943.826;;;;
2021/10/11 11:48:22;;;;;;;1.7;1.3;;;;;;;17.46;42.96777;943.8131;;;;
2021/10/11 11:50:49;;;;;;;1.3;1.2;;;;;;;17.31;44.33301;943.8488;;;;
2021/10/11 11:53:13;;;;;;;2;1.5;;;;;;;18.73;40.27637;943.7827;;;;
2021/10/11 11:55:39;;;;;;;1.8;1.4;;;;;;;20.75;34.41895;943.7631;;;;
2021/10/11 11:58:04;;;;;;;2.1;1.2;;;;;;;21.63;33.31738;943.7684;;;;
2021/10/11 12:00:32;;;;;;;3.9;1.2;;;;;;;23.74;30.22656;943.6892;;;;
2021/10/11 12:02:55;;;;;;;1.5;1.1;;;;;;;23.68;30.69336;943.5627;;;;
2021/10/11 12:05:21;;;;;;;76.9;6.5;;;;;;;23.54;30.02539;943.5041;;;;
2021/10/11 12:07:46;;;;;;;1.9;1.1;;;;;;;24.67;29.0293;943.5656;;;;
2021/10/11 12:10:13;;;;;;;1.3;1;;;;;;;25.28;27.95801;943.5938;;;;
2021/10/11 12:12:38;;;;;;;202.8;25;;;;;;;24.26;29.15527;943.5323;;;;
2021/10/11 12:15:05;;;;;;;8.9;2.6;;;;;;;24.18;29.37402;943.5714;;;;
2021/10/11 12:17:31;;;;;;;2.4;1.4;;;;;;;25.07;28.85352;943.5469;;;;
2021/10/11 12:19:56;;;;;;;63.4;5.9;;;;;;;25.37;27.79883;943.5722;;;;
2021/10/11 12:22:21;;;;;;;1.6;1.3;;;;;;;25.7;27.27539;943.5526;;;;
2021/10/11 12:24:47;;;;;;;2.4;1.5;;;;;;;26.12;26.68652;943.5616;;;;
2021/10/11 12:27:14;;;;;;;2;1.3;;;;;;;28.06;24.23535;943.5378;;;;
2021/10/11 12:29:37;;;;;;;68.2;8.4;;;;;;;26.71;26.18848;943.5192;;;;
2021/10/11 12:32:02;;;;;;;1.7;1.6;;;;;;;26.04;26.63477;943.5421;;;;
2021/10/11 12:34:28;;;;;;;1.3;1.2;;;;;;;27.82;24.4248;943.5081;;;;
2021/10/11 12:36:53;;;;;;;1.4;1.1;;;;;;;27.7;24.63184;943.443;;;;
2021/10/11 12:39:18;;;;;;;2.1;1.3;;;;;;;27.6;24.4834;943.4495;;;;
2021/10/11 12:41:43;;;;;;;1.2;1.1;;;;;;;28.14;23.8125;943.3649;;;;
2021/10/11 12:44:14;;;;;;;1.6;1.2;;;;;;;26.78;25.39941;943.3621;;;;
2021/10/11 12:46:34;;;;;;;1.2;1.1;;;;;;;26.9;25.84375;943.2492;;;;
2021/10/11 12:49:00;;;;;;;264;33.4;;;;;;;26.86;25.72266;943.2807;;;;
2021/10/11 12:51:26;;;;;;;2.2;1.3;;;;;;;26.87;26.74219;943.308;;;;
2021/10/11 12:53:51;;;;;;;2.8;1.6;;;;;;;27.17;24.82813;943.3461;;;;
2021/10/11 12:56:17;;;;;;;342.1;33.8;;;;;;;26.2;26.44238;943.3523;;;;
2021/10/11 12:58:42;;;;;;;1.4;1.3;;;;;;;26.47;26.70605;943.3002;;;;
2021/10/11 13:01:21;;;;;;;1.9;1.3;;;;;;;26.11;26.41309;943.2699;;;;
2021/10/11 13:03:32;;;;;;;1.2;1.1;;;;;;;28.01;24.12598;943.2059;;;;
2021/10/11 13:05:58;;;;;;;6.8;2.9;;;;;;;28.11;24.47559;943.1348;;;;
2021/10/11 13:08:22;;;;;;;1.7;1.3;;;;;;;27.86;23.8916;943.0892;;;;
2021/10/11 13:10:48;;;;;;;1.3;1.2;;;;;;;28.31;23.27441;943.0703;;;;
2021/10/11 13:13:13;;;;;;;1.4;1.3;;;;;;;27.98;22.97168;943.0365;;;;
2021/10/11 13:15:40;;;;;;;46.8;7.1;;;;;;;26.01;26.66699;943.1417;;;;
2021/10/11 13:18:07;;;;;;;2.3;1.6;;;;;;;25.48;27.53418;943.0703;;;;
2021/10/11 13:20:31;;;;;;;1.4;1.3;;;;;;;26.78;25.38672;943.0861;;;;
2021/10/11 13:22:56;;;;;;;1.5;1.4;;;;;;;26.15;26.28516;943.0958;;;;
2021/10/11 13:25:21;;;;;;;2.2;1.6;;;;;;;25.87;26.6123;943.1933;;;;
2021/10/11 13:27:47;;;;;;;1.7;1.4;;;;;;;26.09;25.97461;943.2551;;;;
2021/10/11 13:33:27;;;;;;;1.8;1.4;;;;;;;24.16;29.44336;943.0845;;;;
2021/10/11 13:35:56;;;;;;;1.8;1.6;;;;;;;24.13;29.37012;943.0628;;;;
2021/10/11 13:38:43;;;;;;;1.9;1.6;;;;;;;23.72;29.93164;943.0906;;;;
2021/10/11 14:26:28;;;;;;;2.1;1.9;;;;;;;23.67;30.23438;942.8895;;;;
2021/10/11 14:28:29;;;;;;;2.2;1.8;;;;;;;24.02;30.30566;942.8362;;;;
2021/10/11 14:31:05;;;;;;;2;1.6;;;;;;;23.49;30.10449;942.9415;;;;
2021/10/11 14:33:50;;;;;;;2.6;2.1;;;;;;;23.6;29.79395;942.8965;;;;
2021/10/11 15:58:19;;;;;;;3.7;2.5;;;;;;;12.85;53.39844;943.2184;;;;
2021/10/11 16:00:25;;;;;;;3.5;2.5;;;;;;;12.95;52.99805;943.2065;;;;
2021/10/11 16:02:49;;;;;;;3.8;2.8;;;;;;;12.92;52.6377;943.1767;;;;
2021/10/11 16:05:14;;;;;;;4;2.3;;;;;;;12.79;53.72461;943.1506;;;;
2021/10/11 16:07:40;;;;;;;5.4;3.6;;;;;;;12.68;53.81445;943.1791;;;;
2021/10/11 16:10:10;;;;;;;5.9;4;;;;;;;12.7;55.13574;943.2449;;;;
2021/10/11 16:12:38;;;;;;;4.7;2.9;;;;;;;12.59;55.12207;943.2547;;;;
2021/10/11 16:15:01;;;;;;;5.5;3.3;;;;;;;12.52;55.7207;943.1733;;;;
2021/10/11 16:17:26;;;;;;;3.5;2.3;;;;;;;12.54;55.48242;943.1799;;;;
2021/10/11 16:19:53;;;;;;;3.3;2.5;;;;;;;12.35;58.22168;943.2367;;;;
2021/10/11 16:22:18;;;;;;;3.4;2.5;;;;;;;12.1;59.07129;943.2083;;;;
2021/10/11 16:24:45;;;;;;;3.2;2.4;;;;;;;11.83;59.88184;943.3364;;;;
2021/10/11 16:27:10;;;;;;;4.9;2.3;;;;;;;11.73;59.26172;943.3736;;;;
2021/10/11 16:29:37;;;;;;;4.2;2.4;;;;;;;11.66;58.41602;943.3967;;;;
2021/10/11 16:32:01;;;;;;;3;2;;;;;;;11.58;58.24414;943.4344;;;;
2021/10/11 16:34:26;;;;;;;3.1;1.7;;;;;;;11.65;57.85254;943.4139;;;;
2021/10/11 16:36:52;;;;;;;4.9;2.6;;;;;;;11.53;59.42773;943.4672;;;;
2021/10/11 16:39:17;;;;;;;7.7;4.3;;;;;;;11.53;60.54883;943.4479;;;;
2021/10/11 16:41:43;;;;;;;8.3;4.3;;;;;;;11.36;62.46973;943.4788;;;;
2021/10/11 16:44:10;;;;;;;5.6;4;;;;;;;11.36;63.45508;943.5154;;;;
2021/10/11 16:46:33;;;;;;;10.6;5.8;;;;;;;11.24;63.76953;943.5408;;;;
2021/10/11 16:48:58;;;;;;;9.9;6.5;;;;;;;11.12;64.23047;943.5864;;;;
2021/10/11 16:51:23;;;;;;;10.5;6.4;;;;;;;10.99;65.92676;943.6222;;;;
2021/10/11 16:56:14;;;;;;;5.2;4;;;;;;;10.6;65.04395;943.7576;;;;
2021/10/11 16:58:39;;;;;;;4.5;3.1;;;;;;;10.43;65.79395;943.8325;;;;
2021/10/11 17:01:04;;;;;;;8.3;3.7;;;;;;;10.4;66.51074;943.8883;;;;
2021/10/11 17:03:31;;;;;;;7.9;4.6;;;;;;;10.23;68.18262;943.9558;;;;
2021/10/11 17:05:58;;;;;;;9.8;6.3;;;;;;;10.13;69.26172;943.985;;;;
2021/10/11 17:08:22;;;;;;;8.9;6.1;;;;;;;10.05;69.36328;944.0256;;;;
2021/10/11 17:10:47;;;;;;;8.1;5.2;;;;;;;10.04;69.44141;944.1264;;;;
2021/10/11 17:13:13;;;;;;;6.3;4.3;;;;;;;10.06;69.3418;944.165;;;;
2021/10/11 17:15:39;;;;;;;6.3;3.8;;;;;;;9.99;69.65234;944.1967;;;;
2021/10/11 17:18:05;;;;;;;8.6;3.6;;;;;;;10;69.84668;944.1658;;;;
2021/10/11 17:20:30;;;;;;;6.6;3.8;;;;;;;9.91;70.17383;944.308;;;;
2021/10/11 17:22:56;;;;;;;8.5;4.5;;;;;;;9.82;71.00293;944.2829;;;;
2021/10/11 17:25:21;;;;;;;10.9;7.6;;;;;;;9.74;72.9043;944.3231;;;;
2021/10/11 17:27:47;;;;;;;12.2;8.1;;;;;;;9.76;73.06641;944.3982;;;;
2021/10/11 17:30:13;;;;;;;8.9;6.2;;;;;;;9.88;72.35645;944.4258;;;;
2021/10/11 17:32:45;;;;;;;9.6;5.6;;;;;;;9.64;73.27441;944.4646;;;;
2021/10/11 17:35:07;;;;;;;8;4.9;;;;;;;9.57;73.08008;944.4406;;;;
2021/10/11 17:37:33;;;;;;;9.7;6.1;;;;;;;9.52;73.33301;944.4839;;;;
2021/10/11 17:39:58;;;;;;;9.3;6.7;;;;;;;9.55;74.27441;944.5101;;;;
2021/10/11 17:42:24;;;;;;;8.4;6.1;;;;;;;9.47;74.57813;944.6234;;;;
2021/10/11 17:44:49;;;;;;;8.7;6;;;;;;;9.51;74.24219;944.4971;;;;